Weather observations for the past three days for
Abilene, Abilene Regional Airport
Metric (Imperial)
Date Time (cdt) Wind (kph) Vis. (km) Weather Sky Cond. Temperature (ºC) Relative Humidity Wind Chill (°C) Heat Index (°C) Pressure Precipitation (cm)
Air Dwpt 6 hour altimeter (cm) sea level (mb) 1 hr 3 hr 6 hr
Max. Min.
04 17:52 S 28 G 44 16.09 Fair CLR 30.6 15 39% 30 75.44 1003.3
04 15:52 S 20 G 41 16.09 Fair CLR 28.9 16.1 46% 29 75.59 1005.2
04 14:52 S 28 16.09 Fair CLR 28.3 16.1 48% 29 75.67 1006.2
04 13:52 S 22 G 41 16.09 Fair CLR 26.7 16.1 52% 27 75.74 1007.4
04 12:52 SW 28 G 46 16.09 Fair CLR 26.7 15.6 26.7 16.1 51% 27 75.79 1008.3
04 11:52 S 30 G 46 16.09 Fair CLR 23.9 15 58% 25 75.84 1009.2
04 10:52 SW 24 G 46 16.09 Fair CLR 22.2 14.4 61% 75.87 1009.5
04 09:52 S 33 G 46 16.09 Fair and Breezy CLR 20.6 13.9 66% 75.92 1010.1
04 08:52 S 19 G 43 16.09 Fair CLR 18.9 12.8 68% 75.87 1009.6
04 07:52 S 20 16.09 Fair CLR 17.2 11.7 70% 75.87 1009.3
04 06:52 S 24 G 41 16.09 Fair CLR 16.7 10.6 18.3 16.1 67% 75.82 1008.9
04 05:52 S 20 16.09 Fair CLR 16.7 10 65% 75.84 1009.2
04 04:52 S 24 G 35 16.09 Fair CLR 16.7 9.4 62% 75.9 1009.8
04 03:52 S 20 16.09 Fair CLR 17.2 8.9 58% 75.92 1010.0
04 02:52 S 20 16.09 Fair CLR 18.3 8.9 54% 76 1010.8
04 01:52 S 17 G 33 16.09 Fair CLR 18.3 8.9 54% 76.05 1011.6
04 00:52 S 17 16.09 Fair CLR 17.8 8.9 23.9 17.2 56% 76.1 1012.5
03 23:52 S 17 16.09 Fair CLR 17.8 8.9 56% 76.15 1013.2
03 22:52 SE 17 16.09 Fair CLR 17.8 8.9 56% 76.17 1013.5
03 21:52 SE 11 16.09 Fair CLR 17.8 8.9 56% 76.17 1013.9
03 20:52 S 11 16.09 Fair CLR 20 8.9 49% 76.15 1013.3
03 19:52 S 11 16.09 Fair CLR 22.2 7.8 40% 76.15 1013.5
03 18:52 S 20 16.09 Fair CLR 23.9 8.3 26.1 23.9 37% 25 76.17 1013.8
03 17:52 S 26 G 41 16.09 Fair CLR 24.4 7.2 33% 25 76.2 1014.2
03 16:52 S 19 G 39 16.09 Fair CLR 25.6 8.3 33% 26 76.25 1014.8
03 15:52 S 26 G 43 16.09 Fair CLR 25.6 8.3 33% 26 76.33 1015.8
03 14:52 S 22 G 35 16.09 Fair CLR 25.6 9.4 36% 26 76.43 1017.1
03 13:52 S 28 G 41 16.09 Fair CLR 25 8.9 36% 26 76.5 1018.3
03 12:52 S 22 G 33 16.09 Fair CLR 23.9 9.4 24.4 11.7 40% 25 76.58 1019.3
03 11:52 S 20 G 37 16.09 Fair CLR 22.8 10 44% 76.66 1020.3
03 10:52 SW 26 16.09 Fair CLR 22.2 10.6 48% 76.71 1020.9
03 09:52 SW 28 G 37 16.09 Fair CLR 20 9.4 51% 76.71 1021.1
03 08:52 SW 17 16.09 Fair CLR 17.2 9.4 60% 76.68 1021.0
03 07:52 S 15 16.09 Fair CLR 13.9 8.9 72% 76.66 1020.4
03 06:52 S 9 16.09 Fair CLR 11.7 7.8 15 11.7 77% 76.63 1020.0
03 05:52 S 11 16.09 Fair CLR 12.2 7.8 75% 76.61 1019.6
03 04:52 S 9 16.09 Fair CLR 12.8 7.8 72% 76.61 1019.7
03 03:52 S 7 16.09 Fair CLR 12.8 8.3 74% 76.58 1019.3
03 02:52 S 11 16.09 Fair CLR 12.8 8.3 74% 76.58 1019.5
03 01:52 S 9 16.09 Fair CLR 13.9 8.9 72% 76.63 1019.9
03 00:52 Calm 16.09 Fair CLR 15 10 22.2 13.3 72% 76.63 1020.1
02 23:52 Calm 16.09 Fair CLR 13.9 10 78% 76.63 1020.0
02 22:52 S 11 16.09 Fair CLR 14.4 9.4 72% 76.61 1019.7
02 21:52 S 9 16.09 Fair CLR 15.6 9.4 67% 76.58 1019.6
02 20:52 S 11 16.09 Fair CLR 17.2 8.9 58% 76.56 1019.2
02 19:52 S 9 16.09 Fair CLR 20 8.3 47% 76.5 1018.8
02 18:52 SW 7 16.09 Fair CLR 22.2 7.8 24.4 20.6 40% 76.5 1018.8
02 17:52 SW 13 16.09 Fair CLR 23.3 7.8 37% 76.53 1018.8
02 16:52 Calm 16.09 A Few Clouds FEW095 22.8 7.2 37% 76.56 1019.1
02 15:52 Vrbl 7 16.09 Partly Cloudy SCT090 22.8 7.2 37% 76.61 1020.0
02 14:52 Calm 16.09 Mostly Cloudy SCT065 BKN080 21.7 7.8 41% 76.66 1020.7
02 13:52 E 6 16.09 A Few Clouds FEW075 22.2 8.3 41% 76.68 1021.0
02 12:52 SE 11 16.09 Fair CLR 21.7 8.9 21.7 7.8 44% 76.73 1021.7
02 11:52 NW 9 16.09 Fair CLR 20.6 8.9 47% 76.78 1022.3
02 10:52 W 11 16.09 Fair CLR 19.4 9.4 53% 76.81 1022.5
02 09:52 NW 9 16.09 Fair CLR 16.7 9.4 62% 76.78 1022.6
02 08:52 Calm 16.09 Fair CLR 13.3 10.6 84% 76.78 1022.5
02 07:52 S 7 12.87 Fair CLR 9.4 8.3 93% 9 76.73 1022.0
02 06:52 S 7 14.48 Fair CLR 7.8 7.2 11.7 7.8 96% 7 76.66 1021.3
02 05:52 W 7 14.48 Fair CLR 8.9 7.8 93% 8 76.63 1020.7
02 04:52 Calm 14.48 Fair CLR 10 8.3 89% 76.58 1020.2
02 03:52 Calm 14.48 Fair CLR 10 8.3 89% 76.56 1019.7
02 02:52 S 6 16.09 Fair CLR 10.6 8.9 89% 76.58 1019.9
02 01:52 Calm 16.09 Fair CLR 11.1 8.9 86% 76.58 1020.3
02 00:52 S 9 14.48 Fair CLR 11.1 10.6 15.6 11.1 97% 76.56 1019.9
01 23:52 S 9 16.09 A Few Clouds FEW120 12.2 10.6 90% 76.53 1019.3
01 22:52 SE 7 16.09 Mostly Cloudy BKN120 12.8 10.6 87% 76.5 1019.1
01 21:52 Calm 16.09 Mostly Cloudy BKN120 13.3 9.4 77% 76.5 1019.0
01 20:52 NE 6 16.09 Fair CLR 15 7.8 62% 76.43 1017.8
01 19:52 NE 6 16.09 Fair CLR 15.6 7.8 60% 76.38 1017.0
01 18:52 NE 17 16.09 Fair CLR 15.6 7.2 16.7 13.3 58% 76.33 1016.3 0.13
Date Time (cdt) Wind (kph) Vis. (km) Weather Sky Cond. Air Dwpt Max. Min. Relative Humidity Wind Chill (°C) Heat Index (°C) altimeter (cm) sea level (mb) 1 hr 3 hr 6 hr
6 hour
Temperature (ºC) Pressure Precipitation (cm)